Time;durP1;ratioP1;P1;durP2;ratioP2;P2;SDS_P1;SDS_P2;PMS_P1;PMS_P2;Temp;Humidity;BMP_temperature;BMP_pressure;BME280_temperature;BME280_humidity;BME280_pressure;Samples;Min_cycle;Max_cycle;Signal;HPM_P1;HPM_P2
2022/06/02 00:00:11;;;;;;;4.95;2.35;;;14.70;87.20;;;;;;4996030;28;20029;-80
2022/06/02 00:03:03;;;;;;;6.00;2.53;;;12.90;86.70;;;;;;4993709;28;20030;-80
2022/06/02 00:06:10;;;;;;;3.00;2.13;;;14.50;88.20;;;;;;5007229;28;20034;-80
2022/06/02 00:09:07;;;;;;;7.80;2.63;;;14.50;87.90;;;;;;5007826;28;20026;-80
2022/06/02 00:12:24;;;;;;;3.78;2.25;;;14.20;88.20;;;;;;5025097;28;20030;-82
2022/06/02 00:15:28;;;;;;;4.55;2.63;;;14.00;88.70;;;;;;5028860;28;20034;-80
2022/06/02 00:18:31;;;;;;;4.22;2.70;;;13.80;88.70;;;;;;5025050;28;20076;-80
2022/06/02 00:21:09;;;;;;;5.07;2.70;;;14.30;89.20;;;;;;4948222;28;20128;-80
2022/06/02 00:23:59;;;;;;;5.75;2.60;;;14.30;90.00;;;;;;4977466;28;20042;-80
2022/06/02 00:26:58;;;;;;;4.47;2.58;;;14.30;89.50;;;;;;5004131;28;20061;-79
2022/06/02 00:29:44;;;;;;;3.83;2.10;;;14.30;90.00;;;;;;4978718;28;20038;-79
2022/06/02 00:32:13;;;;;;;5.55;2.38;;;14.20;90.10;;;;;;5004321;28;20023;-79
2022/06/02 00:35:13;;;;;;;4.25;2.47;;;14.50;91.10;;;;;;4987872;28;20045;-79
2022/06/02 00:38:03;;;;;;;6.03;2.83;;;14.80;90.50;;;;;;5008942;28;20030;-80
2022/06/02 00:40:31;;;;;;;4.75;2.35;;;12.50;89.80;;;;;;4994889;28;20029;-80
2022/06/02 00:43:35;;;;;;;5.22;2.45;;;16.70;91.60;;;;;;5004974;28;20399;-80
2022/06/02 00:46:03;;;;;;;4.80;2.63;;;14.10;90.50;;;;;;4990348;28;20036;-80
2022/06/02 00:49:02;;;;;;;3.95;2.58;;;14.00;91.00;;;;;;5000849;28;20030;-80
2022/06/02 00:51:58;;;;;;;4.80;2.38;;;14.10;91.00;;;;;;5009572;28;20037;-80
2022/06/02 00:57:40;;;;;;;6.22;2.83;;;13.90;91.50;;;;;;5010526;28;20037;-79
2022/06/02 01:00:17;;;;;;;12.57;3.13;;;13.80;91.70;;;;;;4984284;28;20481;-79
2022/06/02 01:02:53;;;;;;;5.97;3.20;;;13.80;91.80;;;;;;5015842;28;20451;-80
2022/06/02 01:05:33;;;;;;;4.68;2.80;;;13.80;92.00;;;;;;4994931;28;20478;-79
2022/06/02 01:08:34;;;;;;;5.90;2.50;;;13.80;92.20;;;;;;5010995;28;20030;-79
2022/06/02 01:11:28;;;;;;;3.90;2.60;;;15.10;93.90;;;;;;4938672;29;20627;-80
2022/06/02 01:14:22;;;;;;;7.25;2.55;;;13.70;92.70;;;;;;5002489;28;20046;-79
2022/06/02 01:17:15;;;;;;;3.50;2.30;;;13.70;92.90;;;;;;5012762;28;20797;-79
2022/06/02 01:19:53;;;;;;;4.20;2.63;;;;;;;;;;4999851;28;20038;-79
2022/06/02 01:22:30;;;;;;;4.03;2.50;;;13.60;93.20;;;;;;5009716;28;20030;-81
2022/06/02 01:25:17;;;;;;;5.95;2.95;;;13.60;93.50;;;;;;4994429;28;20026;-79
2022/06/02 01:28:09;;;;;;;3.90;2.50;;;13.50;93.90;;;;;;5011439;28;20436;-79
2022/06/02 01:30:54;;;;;;;4.00;2.75;;;15.10;95.20;;;;;;5035988;28;20074;-82
2022/06/02 01:33:24;;;;;;;5.78;3.00;;;13.30;94.20;;;;;;5036684;28;20030;-83
2022/06/02 01:36:12;;;;;;;4.68;2.85;;;13.20;94.60;;;;;;5016901;28;20110;-80
2022/06/02 01:38:52;;;;;;;5.60;2.78;;;12.70;95.00;;;;;;5035050;28;20030;-81
2022/06/02 01:41:32;;;;;;;5.95;3.50;;;13.40;95.10;;;;;;5032067;28;20030;-79
2022/06/02 01:44:19;;;;;;;5.43;2.55;;;13.20;95.20;;;;;;5012478;28;20037;-79
2022/06/02 01:46:58;;;;;;;6.97;2.90;;;11.70;95.00;;;;;;4998925;28;20453;-79
2022/06/02 01:49:49;;;;;;;4.10;2.35;;;13.10;95.50;;;;;;4993622;28;20084;-78
2022/06/02 01:52:35;;;;;;;3.63;2.67;;;13.10;95.70;;;;;;5009762;28;20026;-81
2022/06/02 01:55:38;;;;;;;6.80;3.17;;;13.00;96.10;;;;;;5007755;28;20080;-79
2022/06/02 01:58:31;;;;;;;7.40;2.78;;;13.00;96.30;;;;;;5006784;28;20083;-79
2022/06/02 02:01:37;;;;;;;4.80;2.80;;;12.80;96.90;;;;;;5012220;28;20629;-79
2022/06/02 02:08:19;;;;;;;4.13;2.75;;;12.70;97.30;;;;;;4982821;28;20088;-79
2022/06/02 02:11:26;;;;;;;5.38;3.10;;;12.70;97.30;;;;;;5003305;28;20065;-78
2022/06/02 02:14:21;;;;;;;5.28;2.70;;;12.50;97.60;;;;;;5010855;28;20026;-79
2022/06/02 02:17:05;;;;;;;5.47;2.80;;;12.90;97.80;;;;;;5009349;28;20041;-79
2022/06/02 02:19:53;;;;;;;6.65;2.97;;;12.60;98.20;;;;;;4989666;28;20405;-79
2022/06/02 02:22:47;;;;;;;6.22;2.78;;;13.20;98.30;;;;;;4994427;28;20026;-79
2022/06/02 02:25:28;;;;;;;6.85;2.92;;;12.60;98.40;;;;;;4993203;28;20076;-79
2022/06/02 02:28:16;;;;;;;6.28;3.25;;;13.30;99.00;;;;;;5008806;28;20049;-79
2022/06/02 02:30:56;;;;;;;3.78;2.42;;;12.50;98.90;;;;;;5010130;28;20029;-80
2022/06/02 02:33:51;;;;;;;4.07;2.97;;;13.40;99.50;;;;;;5002655;28;20176;-79
2022/06/02 02:36:53;;;;;;;5.95;3.47;;;12.50;99.50;;;;;;4995033;28;20061;-79
2022/06/02 02:39:27;;;;;;;4.75;2.92;;;12.40;99.40;;;;;;5008082;28;20018;-79
2022/06/02 02:42:00;;;;;;;6.38;3.25;;;12.30;99.30;;;;;;5008156;28;20022;-79
2022/06/02 02:45:01;;;;;;;5.65;3.40;;;13.40;99.90;;;;;;4993320;28;20054;-79
2022/06/02 02:47:31;;;;;;;;;;;11.40;99.90;;;;;;4989618;28;20116;-79
2022/06/02 02:50:12;;;;;;;4.07;2.85;;;10.50;99.90;;;;;;5015175;28;19959;-79
2022/06/02 02:53:02;;;;;;;3.78;3.13;;;12.20;99.90;;;;;;4997244;28;20085;-79
2022/06/02 02:55:41;;;;;;;6.73;3.03;;;12.20;99.90;;;;;;5006318;28;20040;-80
2022/06/02 02:58:38;;;;;;;5.47;2.92;;;12.50;99.90;;;;;;5007764;28;20112;-79
2022/06/02 03:01:26;;;;;;;5.72;3.50;;;13.60;99.90;;;;;;4985209;28;20030;-79
2022/06/02 03:04:10;;;;;;;3.42;2.80;;;14.50;99.90;;;;;;5009441;28;20034;-79
2022/06/02 03:06:41;;;;;;;6.30;3.20;;;11.60;99.90;;;;;;4991837;28;20393;-79
2022/06/02 03:09:27;;;;;;;6.55;3.10;;;11.90;99.90;;;;;;4997681;28;20022;-79
2022/06/02 03:11:53;;;;;;;6.72;3.75;;;11.80;99.90;;;;;;4993862;28;20058;-79
2022/06/02 03:14:42;;;;;;;4.80;3.38;;;11.80;99.90;;;;;;5011983;28;20497;-80
2022/06/02 03:17:41;;;;;;;5.03;3.08;;;11.90;99.90;;;;;;5007309;28;20026;-79
2022/06/02 03:20:24;;;;;;;6.78;3.22;;;11.80;99.90;;;;;;4992091;28;20028;-79
2022/06/02 03:23:22;;;;;;;4.90;3.28;;;11.70;99.90;;;;;;4988633;28;20034;-79
2022/06/02 03:25:53;;;;;;;5.47;3.20;;;11.90;99.90;;;;;;4995946;28;20096;-79
2022/06/02 03:28:28;;;;;;;5.85;3.78;;;13.60;99.90;;;;;;4992545;28;20032;-79
2022/06/02 03:31:16;;;;;;;5.25;3.58;;;10.60;99.90;;;;;;4992450;28;20041;-80
2022/06/02 03:33:57;;;;;;;7.03;3.50;;;10.80;99.90;;;;;;5007253;28;20183;-79
2022/06/02 03:36:35;;;;;;;6.10;3.40;;;12.30;99.90;;;;;;4988173;28;20026;-79
2022/06/02 03:39:08;;;;;;;4.65;3.50;;;11.70;99.90;;;;;;4993826;28;20029;-80
2022/06/02 03:41:55;;;;;;;6.78;3.60;;;12.30;99.90;;;;;;5022511;28;20226;-78
2022/06/02 03:44:30;;;;;;;6.80;3.60;;;11.00;99.90;;;;;;5008016;28;20035;-78
2022/06/02 03:47:23;;;;;;;6.50;3.63;;;10.40;99.90;;;;;;5010050;28;20121;-78
2022/06/02 03:50:19;;;;;;;6.55;3.28;;;10.20;99.90;;;;;;5025560;28;20018;-79
2022/06/02 03:53:16;;;;;;;6.65;4.00;;;11.60;99.90;;;;;;5021892;28;20033;-79
2022/06/02 03:56:05;;;;;;;7.10;3.92;;;11.40;99.90;;;;;;5008458;28;20019;-79
2022/06/02 03:59:21;;;;;;;7.00;3.50;;;11.50;99.90;;;;;;5003268;28;20053;-79
2022/06/02 04:02:04;;;;;;;4.88;3.63;;;11.50;99.90;;;;;;5006719;28;20098;-79
2022/06/02 04:04:36;;;;;;;6.82;4.10;;;11.80;99.90;;;;;;5009057;28;20030;-80
2022/06/02 04:07:29;;;;;;;5.30;3.70;;;10.10;99.90;;;;;;5013825;28;20034;-79
2022/06/02 04:10:38;;;;;;;6.88;3.65;;;11.70;99.90;;;;;;5009177;28;20030;-79
2022/06/02 04:16:27;;;;;;;6.72;3.95;;;13.70;99.90;;;;;;5003589;28;20034;-79
2022/06/02 04:22:31;;;;;;;6.97;4.03;;;11.20;99.90;;;;;;5012526;28;20044;-80
2022/06/02 04:25:00;;;;;;;5.50;3.83;;;11.70;99.90;;;;;;5003511;28;20096;-79
2022/06/02 04:27:42;;;;;;;10.48;4.05;;;9.70;99.90;;;;;;5015234;28;20057;-80
2022/06/02 04:30:20;;;;;;;6.55;4.18;;;11.60;99.90;;;;;;4979760;28;20030;-80
2022/06/02 04:33:13;;;;;;;7.40;4.63;;;12.80;99.90;;;;;;5019668;28;20027;-78
2022/06/02 04:36:11;;;;;;;8.52;4.53;;;11.70;99.90;;;;;;5008286;28;20037;-81
2022/06/02 04:39:07;;;;;;;7.80;4.80;;;11.80;99.90;;;;;;4992397;28;20026;-79
2022/06/02 04:42:11;;;;;;;7.68;5.00;;;11.80;99.90;;;;;;5011121;28;20030;-83
2022/06/02 04:45:20;;;;;;;6.53;4.88;;;11.90;99.90;;;;;;5007457;28;20014;-79
2022/06/02 04:48:15;;;;;;;8.25;4.80;;;10.70;99.90;;;;;;5030673;28;20646;-84
2022/06/02 04:50:57;;;;;;;7.55;4.75;;;13.40;99.90;;;;;;5034136;28;20022;-83
2022/06/02 04:53:35;;;;;;;9.25;5.28;;;12.10;99.90;;;;;;5243060;23;20023;-83
2022/06/02 04:56:27;;;;;;;7.50;5.07;;;12.10;99.90;;;;;;4993905;28;20058;-83
2022/06/02 04:59:07;;;;;;;8.55;5.70;;;12.20;99.90;;;;;;4991560;28;20014;-82
2022/06/02 05:01:48;;;;;;;9.93;5.70;;;12.20;99.90;;;;;;5006912;28;20033;-83
2022/06/02 05:04:42;;;;;;;7.35;5.78;;;10.10;99.90;;;;;;4992313;28;20169;-83
2022/06/02 05:07:43;;;;;;;9.98;5.07;;;12.40;99.90;;;;;;4994696;28;20054;-83
2022/06/02 05:10:21;;;;;;;6.38;4.90;;;12.40;99.90;;;;;;4992919;28;20034;-85
2022/06/02 05:12:52;;;;;;;7.53;4.82;;;;;;;;;;5000844;28;20090;-85
2022/06/02 05:15:34;;;;;;;6.90;4.70;;;;;;;;;;5007074;28;20026;-83
2022/06/02 05:18:03;;;;;;;7.13;5.18;;;;;;;;;;4992513;28;20023;-85
2022/06/02 05:20:52;;;;;;;8.30;5.07;;;13.40;99.90;;;;;;5009981;28;20034;-81
2022/06/02 05:23:48;;;;;;;7.18;4.32;;;14.90;98.70;;;;;;4993552;28;20030;-81
2022/06/02 05:26:32;;;;;;;8.10;4.32;;;15.00;98.50;;;;;;4999576;28;20098;-84
2022/06/02 05:29:16;;;;;;;6.72;3.70;;;17.00;92.50;;;;;;4987118;28;20011;-81
2022/06/02 05:32:20;;;;;;;4.43;3.40;;;17.00;92.70;;;;;;5004756;28;20094;-83
2022/06/02 05:35:17;;;;;;;16.25;4.53;;;18.20;90.10;;;;;;4999083;28;20026;-83
2022/06/02 05:37:52;;;;;;;14.10;7.70;;;18.20;89.40;;;;;;5014362;28;20034;-82
2022/06/02 05:40:37;;;;;;;8.00;3.55;;;18.10;87.60;;;;;;5007551;28;20035;-83
2022/06/02 05:43:08;;;;;;;4.95;3.50;;;18.40;88.00;;;;;;5019487;23;20052;-84
2022/06/02 05:46:07;;;;;;;6.28;3.75;;;18.90;86.40;;;;;;5021192;28;20108;-84
2022/06/02 05:49:11;;;;;;;6.40;3.47;;;19.00;84.70;;;;;;5024497;28;20032;-85
2022/06/02 05:52:02;;;;;;;5.05;3.45;;;20.30;80.10;;;;;;5036728;28;20149;-81
2022/06/02 05:54:40;;;;;;;5.32;3.50;;;;;;;;;;5048904;28;20057;-80
2022/06/02 05:58:09;;;;;;;5.00;3.50;;;20.50;77.90;;;;;;5036992;28;20030;-81
2022/06/02 06:00:45;;;;;;;6.18;3.50;;;;;;;;;;4988902;28;20026;-81
2022/06/02 06:03:13;;;;;;;7.50;3.50;;;;;;;;;;5035382;28;20041;-81
2022/06/02 06:05:46;;;;;;;10.07;3.60;;;20.10;77.90;;;;;;5029118;28;20022;-81
2022/06/02 06:08:14;;;;;;;6.30;3.60;;;;;;;;;;5057516;28;20022;-83
2022/06/02 06:10:54;;;;;;;5.15;3.85;;;;;;;;;;5058363;28;20029;-82
2022/06/02 06:13:35;;;;;;;5.60;3.72;;;;;;;;;;5053451;28;20088;-82
2022/06/02 06:16:20;;;;;;;4.65;3.67;;;;;;;;;;5061391;28;20018;-82
2022/06/02 06:19:01;;;;;;;6.13;4.43;;;20.10;75.80;;;;;;5048637;28;20393;-81
2022/06/02 06:21:42;;;;;;;5.22;3.60;;;;;;;;;;5038187;28;20029;-82
2022/06/02 06:24:28;;;;;;;6.35;3.45;;;19.60;77.40;;;;;;5046187;28;20026;-82
2022/06/02 06:27:18;;;;;;;6.85;3.47;;;19.20;77.80;;;;;;5047126;28;20074;-82
2022/06/02 06:29:44;;;;;;;;;;;19.30;78.50;;;;;;5050510;28;20076;-81
2022/06/02 06:32:33;;;;;;;8.70;3.33;;;;;;;;;;5032465;28;19909;-82
2022/06/02 06:35:32;;;;;;;6.43;3.80;;;;;;;;;;5014797;28;20049;-82
2022/06/02 06:37:58;;;;;;;5.55;4.05;;;;;;;;;;5000154;28;20040;-80
2022/06/02 06:40:44;;;;;;;4.07;3.00;;;;;;;;;;5041158;28;20037;-82
2022/06/02 06:43:17;;;;;;;5.15;3.35;;;;;;;;;;5051880;28;20080;-81
2022/06/02 06:45:51;;;;;;;6.57;3.65;;;;;;;;;;5037155;28;20026;-82
2022/06/02 06:48:30;;;;;;;4.90;3.10;;;17.80;81.60;;;;;;5046531;28;20093;-82
2022/06/02 06:51:01;;;;;;;4.70;3.05;;;;;;;;;;5054310;28;20059;-81
2022/06/02 06:53:32;;;;;;;5.85;3.22;;;;;;;;;;5043974;28;20061;-81
2022/06/02 06:56:12;;;;;;;4.90;3.05;;;;;;;;;;5042725;28;20013;-82
2022/06/02 06:58:41;;;;;;;3.60;2.63;;;;;;;;;;5053054;28;20021;-82
2022/06/02 07:01:07;;;;;;;4.68;3.40;;;;;;;;;;5052051;28;20033;-81
2022/06/02 07:03:36;;;;;;;6.60;3.50;;;;;;;;;;5058116;28;20021;-81
2022/06/02 07:06:08;;;;;;;5.10;3.35;;;;;;;;;;5053383;28;20047;-82
2022/06/02 07:08:37;;;;;;;5.75;3.10;;;;;;;;;;5031828;28;20029;-81
2022/06/02 07:14:04;;;;;;;4.40;2.90;;;;;;;;;;5037865;28;20084;-81
2022/06/02 07:16:35;;;;;;;4.57;2.92;;;;;;;;;;5044653;28;20029;-82
2022/06/02 07:19:16;;;;;;;5.22;2.72;;;;;;;;;;5038352;28;20033;-81
2022/06/02 07:21:46;;;;;;;;;;;17.50;82.60;;;;;;5041751;28;20472;-81
2022/06/02 07:24:12;;;;;;;5.43;2.78;;;;;;;;;;5045598;28;19909;-82
2022/06/02 07:26:51;;;;;;;5.50;3.10;;;;;;;;;;5029429;28;20106;-82
2022/06/02 07:29:23;;;;;;;5.45;2.58;;;;;;;;;;5034441;28;20038;-82
2022/06/02 07:32:17;;;;;;;4.97;2.67;;;;;;;;;;5042452;28;20028;-82
2022/06/02 07:35:13;;;;;;;5.80;2.90;;;;;;;;;;5036137;28;20125;-81
2022/06/02 07:37:58;;;;;;;4.63;2.60;;;18.10;80.00;;;;;;5035567;28;20063;-82
2022/06/02 07:40:33;;;;;;;3.55;2.45;;;;;;;;;;5052446;28;20029;-82
2022/06/02 07:43:15;;;;;;;3.53;2.30;;;;;;;;;;5047716;28;20089;-82
2022/06/02 07:45:51;;;;;;;7.78;2.70;;;;;;;;;;5047005;28;20087;-81
2022/06/02 07:48:22;;;;;;;6.72;2.10;;;;;;;;;;5053723;28;20092;-80
2022/06/02 07:51:12;;;;;;;5.07;2.22;;;;;;;;;;5056934;28;20030;-79
2022/06/02 07:53:50;;;;;;;4.65;2.25;;;;;;;;;;5039119;28;20053;-80
2022/06/02 07:56:22;;;;;;;3.42;2.38;;;;;;;;;;5049239;28;20021;-81
2022/06/02 07:58:48;;;;;;;5.93;2.20;;;;;;;;;;5039814;28;20120;-81
2022/06/02 08:01:17;;;;;;;4.53;1.75;;;;;;;;;;5031132;28;20031;-81
2022/06/02 08:03:53;;;;;;;3.05;1.75;;;;;;;;;;5034569;28;20034;-80
2022/06/02 08:06:36;;;;;;;4.97;2.03;;;;;;;;;;5034545;28;20025;-81
2022/06/02 08:09:30;;;;;;;2.40;1.52;;;;;;;;;;5012979;28;20029;-81
2022/06/02 08:12:16;;;;;;;2.90;1.55;;;;;;;;;;5046873;28;20045;-81
2022/06/02 08:15:08;;;;;;;4.05;1.80;;;;;;;;;;5030102;28;20039;-80
2022/06/02 08:17:50;;;;;;;3.00;1.48;;;19.40;75.70;;;;;;5026468;28;20029;-81
2022/06/02 08:20:16;;;;;;;4.18;1.88;;;;;;;;;;5023103;28;20021;-81
2022/06/02 08:22:42;;;;;;;3.75;1.50;;;;;;;;;;5039389;28;20033;-82
2022/06/02 08:25:14;;;;;;;3.38;1.50;;;19.80;74.00;;;;;;5039647;28;20034;-80
2022/06/02 08:28:20;;;;;;;2.50;1.55;;;19.80;74.00;;;;;;5028166;28;20021;-83
2022/06/02 08:30:55;;;;;;;2.33;1.30;;;19.90;70.10;;;;;;5036462;28;20409;-81
2022/06/02 08:33:21;;;;;;;4.28;1.70;;;;;;;;;;5035701;28;20075;-81
2022/06/02 08:35:47;;;;;;;2.75;1.42;;;;;;;;;;5042485;28;20033;-80
2022/06/02 08:38:15;;;;;;;2.72;1.55;;;;;;;;;;5034251;28;20128;-81
2022/06/02 08:44:10;;;;;;;;;;;20.70;70.40;;;;;;5038618;28;20625;-81
2022/06/02 08:46:41;;;;;;;5.50;1.50;;;;;;;;;;5037991;28;19909;-81
2022/06/02 08:49:10;;;;;;;4.80;1.58;;;;;;;;;;5038144;28;20034;-80
2022/06/02 08:51:36;;;;;;;4.78;1.50;;;;;;;;;;5032342;28;20033;-80
2022/06/02 08:54:21;;;;;;;1.80;1.20;;;20.60;70.60;;;;;;5031847;28;20021;-81
2022/06/02 08:56:53;;;;;;;3.70;1.17;;;;;;;;;;5035648;28;20078;-81
2022/06/02 08:59:56;;;;;;;1.52;1.00;;;20.50;68.90;;;;;;5034399;28;20025;-81
2022/06/02 09:02:55;;;;;;;3.25;1.17;;;20.50;68.80;;;;;;5030052;28;20017;-80
2022/06/02 09:05:36;;;;;;;2.90;1.30;;;;;;;;;;5039866;28;20025;-81
2022/06/02 09:08:10;;;;;;;;;;;20.50;68.60;;;;;;5035749;28;20034;-81
2022/06/02 09:10:36;;;;;;;2.45;1.20;;;;;;;;;;5043871;28;19932;-81
2022/06/02 09:13:18;;;;;;;2.72;1.10;;;;;;;;;;5043803;28;20040;-81
2022/06/02 09:15:59;;;;;;;5.53;1.55;;;;;;;;;;5035603;28;20037;-81
2022/06/02 09:18:25;;;;;;;3.67;1.50;;;;;;;;;;5045295;28;20025;-81
2022/06/02 09:21:07;;;;;;;3.28;1.20;;;;;;;;;;5045956;28;20028;-80
2022/06/02 09:23:46;;;;;;;2.45;1.27;;;;;;;;;;5036200;28;20076;-79
2022/06/02 09:26:49;;;;;;;5.25;1.40;;;21.10;68.70;;;;;;5039222;28;20037;-80
2022/06/02 09:29:48;;;;;;;3.50;1.38;;;21.10;68.20;;;;;;5028580;28;20076;-82
2022/06/02 09:32:44;;;;;;;2.20;1.33;;;21.00;68.50;;;;;;5045324;28;20088;-80
2022/06/02 09:35:22;;;;;;;3.60;1.20;;;21.00;68.90;;;;;;5048332;28;20025;-80
2022/06/02 09:38:25;;;;;;;10.48;1.52;;;21.10;68.20;;;;;;5048153;28;20029;-81
2022/06/02 09:41:27;;;;;;;3.28;1.30;;;21.10;68.10;;;;;;5041001;28;20049;-80
2022/06/02 09:43:53;;;;;;;5.38;1.58;;;;;;;;;;5020287;28;20029;-79
2022/06/02 09:46:41;;;;;;;5.85;1.40;;;21.40;67.70;;;;;;5033613;28;20018;-80
2022/06/02 09:49:40;;;;;;;6.82;1.23;;;21.20;67.50;;;;;;5039602;28;20056;-80
2022/06/02 09:52:12;;;;;;;2.47;1.15;;;;;;;;;;5038558;28;20053;-81
2022/06/02 09:54:53;;;;;;;2.50;1.15;;;21.40;67.50;;;;;;5045698;28;20053;-80
2022/06/02 09:57:55;;;;;;;3.60;1.38;;;21.50;66.40;;;;;;5048553;28;20040;-80
2022/06/02 10:00:40;;;;;;;2.17;1.25;;;21.70;66.40;;;;;;5042059;28;20022;-81
2022/06/02 10:03:06;;;;;;;2.10;1.35;;;;;;;;;;5038285;28;20030;-81
2022/06/02 10:06:04;;;;;;;2.25;1.42;;;21.80;66.00;;;;;;5048512;28;20033;-79
2022/06/02 10:08:42;;;;;;;1.98;1.30;;;21.40;66.00;;;;;;5046362;28;20100;-80
2022/06/02 10:11:50;;;;;;;1.70;1.17;;;21.90;66.30;;;;;;5037012;28;20037;-80
2022/06/02 10:14:40;;;;;;;3.03;1.40;;;21.80;66.20;;;;;;5016256;28;20029;-81
2022/06/02 10:17:48;;;;;;;1.92;1.27;;;21.90;66.20;;;;;;5033008;28;20413;-80
2022/06/02 10:20:29;;;;;;;2.90;1.27;;;21.90;66.40;;;;;;5041851;28;20021;-81
2022/06/02 10:22:55;;;;;;;5.35;1.50;;;;;;;;;;5041382;28;20085;-80
2022/06/02 10:25:51;;;;;;;2.72;1.23;;;22.10;66.30;;;;;;5025299;28;20038;-80
2022/06/02 10:28:29;;;;;;;2.83;1.33;;;22.20;65.70;;;;;;5045062;28;20503;-80
2022/06/02 10:31:27;;;;;;;3.67;1.40;;;22.10;65.70;;;;;;5042068;28;20080;-80
2022/06/02 10:34:23;;;;;;;3.10;1.20;;;22.20;65.60;;;;;;5045383;28;20105;-82
2022/06/02 10:37:23;;;;;;;2.85;1.40;;;22.30;65.70;;;;;;5042217;28;20041;-80
2022/06/02 10:40:12;;;;;;;3.40;1.58;;;22.40;66.00;;;;;;5023141;28;20026;-80
2022/06/02 10:43:04;;;;;;;2.95;1.20;;;22.60;65.40;;;;;;5037746;28;20041;-80
2022/06/02 10:45:44;;;;;;;2.28;1.25;;;22.60;65.40;;;;;;5018598;28;20039;-80
2022/06/02 10:48:47;;;;;;;1.90;1.20;;;22.20;65.60;;;;;;5013759;28;20022;-80
2022/06/02 10:51:34;;;;;;;2.05;1.20;;;22.40;65.50;;;;;;5041200;28;20095;-81
2022/06/02 10:54:39;;;;;;;2.75;1.63;;;22.40;65.40;;;;;;5032328;28;20413;-79
2022/06/02 10:57:59;;;;;;;2.80;1.33;;;22.40;66.10;;;;;;5004997;28;20093;-80
2022/06/02 11:00:59;;;;;;;4.15;1.63;;;22.30;65.70;;;;;;5039214;28;20060;-80
2022/06/02 11:03:55;;;;;;;2.30;1.40;;;22.20;65.90;;;;;;5041031;28;20030;-80
2022/06/02 11:06:58;;;;;;;2.58;1.30;;;22.20;65.20;;;;;;5034717;28;20026;-81
2022/06/02 11:09:42;;;;;;;3.42;1.65;;;22.10;65.40;;;;;;5039763;28;20038;-81
2022/06/02 11:12:42;;;;;;;1.98;1.10;;;22.30;64.90;;;;;;5024407;28;20034;-81
2022/06/02 11:15:33;;;;;;;3.88;1.20;;;22.50;64.20;;;;;;5038341;28;20030;-81
2022/06/02 11:18:07;;;;;;;3.08;1.50;;;22.60;64.60;;;;;;5041912;28;20028;-81
2022/06/02 11:21:06;;;;;;;3.47;1.30;;;22.50;64.80;;;;;;5023432;28;20036;-81
2022/06/02 11:23:53;;;;;;;2.33;1.27;;;22.50;64.30;;;;;;5036221;28;20111;-79
2022/06/02 11:26:38;;;;;;;2.08;1.25;;;22.20;64.70;;;;;;5043258;28;20087;-80
2022/06/02 11:29:41;;;;;;;4.28;1.50;;;22.40;67.80;;;;;;5046926;28;20033;-81
2022/06/02 11:32:07;;;;;;;1.90;1.10;;;;;;;;;;5055318;28;20039;-83
2022/06/02 11:34:59;;;;;;;6.28;1.83;;;22.50;64.90;;;;;;5048939;28;20025;-81
2022/06/02 11:38:09;;;;;;;3.13;1.27;;;22.60;65.90;;;;;;5042832;28;20018;-81
2022/06/02 11:41:20;;;;;;;1.77;1.15;;;20.90;64.30;;;;;;5041741;28;20106;-82
2022/06/02 11:43:47;;;;;;;1.60;1.10;;;;;;;;;;5026194;23;20046;-86
2022/06/02 11:46:34;;;;;;;3.30;1.40;;;22.60;64.20;;;;;;4988255;28;20050;-86
2022/06/02 11:49:13;;;;;;;4.13;1.30;;;22.60;65.00;;;;;;4996628;28;20026;-84
2022/06/02 11:51:42;;;;;;;4.88;1.48;;;22.60;65.20;;;;;;5013968;28;20042;-87
2022/06/02 11:54:39;;;;;;;3.87;1.47;;;22.40;65.50;;;;;;4999989;28;20030;-85
2022/06/02 11:57:11;;;;;;;2.33;1.05;;;22.20;65.80;;;;;;4998717;28;20096;-85
2022/06/02 12:00:16;;;;;;;2.67;1.50;;;22.10;65.80;;;;;;4978682;28;20046;-85
2022/06/02 12:03:00;;;;;;;3.63;1.30;;;22.00;66.40;;;;;;4954933;28;20038;-86
2022/06/02 12:05:40;;;;;;;1.75;1.10;;;22.20;66.40;;;;;;4988428;28;20026;-85
2022/06/02 12:08:44;;;;;;;2.08;1.40;;;22.40;65.60;;;;;;4988743;28;20023;-85
2022/06/02 12:11:25;;;;;;;2.20;1.10;;;22.60;65.20;;;;;;4997391;28;20027;-86
2022/06/02 12:13:51;;;;;;;2.08;1.33;;;22.70;65.10;;;;;;4991067;28;20041;-85
2022/06/02 12:16:19;;;;;;;2.20;1.33;;;22.80;64.40;;;;;;4976393;28;20023;-85
2022/06/02 12:19:00;;;;;;;3.33;1.30;;;22.90;64.30;;;;;;4995994;28;20386;-84
2022/06/02 12:21:48;;;;;;;3.10;1.30;;;22.90;64.60;;;;;;4994627;28;20030;-86
2022/06/02 12:24:49;;;;;;;4.53;1.20;;;22.90;64.40;;;;;;4975717;28;20031;-84
2022/06/02 12:27:45;;;;;;;3.50;1.25;;;23.00;63.90;;;;;;4992783;28;20027;-84
2022/06/02 12:30:27;;;;;;;2.90;1.30;;;23.00;64.70;;;;;;4979367;28;20033;-84
2022/06/02 12:33:40;;;;;;;2.70;1.27;;;24.00;64.30;;;;;;4989049;28;20031;-85
2022/06/02 12:36:36;;;;;;;1.73;1.27;;;23.20;64.20;;;;;;4993386;28;20384;-86
2022/06/02 12:39:16;;;;;;;2.22;1.17;;;23.20;63.90;;;;;;4995403;28;20026;-85
2022/06/02 12:41:51;;;;;;;4.63;1.35;;;23.20;63.20;;;;;;4986260;28;20022;-84
2022/06/02 12:44:38;;;;;;;2.83;1.20;;;23.10;63.50;;;;;;4970960;28;20054;-86
2022/06/02 12:47:30;;;;;;;4.65;1.48;;;23.00;64.00;;;;;;4974626;28;20026;-85
2022/06/02 12:50:01;;;;;;;4.03;1.10;;;23.00;64.20;;;;;;4987295;28;20082;-84
2022/06/02 12:53:14;;;;;;;2.95;1.83;;;23.30;64.50;;;;;;4989556;28;20034;-85
2022/06/02 12:55:46;;;;;;;3.35;1.20;;;23.30;64.30;;;;;;4956796;28;20038;-85
2022/06/02 12:58:53;;;;;;;4.03;1.40;;;23.40;64.40;;;;;;4977972;28;20165;-84
2022/06/02 13:01:49;;;;;;;2.33;1.30;;;23.60;64.00;;;;;;4978637;28;20133;-84
2022/06/02 13:04:17;;;;;;;2.10;1.20;;;23.60;63.20;;;;;;4995046;28;20502;-85
2022/06/02 13:06:49;;;;;;;5.10;1.30;;;23.50;63.90;;;;;;4982913;28;20026;-83
2022/06/02 13:09:30;;;;;;;1.35;1.05;;;23.60;63.60;;;;;;4978674;28;20034;-84
2022/06/02 13:12:37;;;;;;;2.50;1.20;;;23.60;63.70;;;;;;4994822;28;20031;-84
2022/06/02 13:15:11;;;;;;;3.80;1.52;;;23.50;64.00;;;;;;4977676;28;20045;-84
2022/06/02 13:17:40;;;;;;;1.73;1.23;;;23.60;64.60;;;;;;5001128;28;20136;-85
2022/06/02 13:20:32;;;;;;;2.90;1.17;;;23.70;64.50;;;;;;4996027;28;20398;-83
2022/06/02 13:23:29;;;;;;;3.30;1.80;;;23.80;64.30;;;;;;4960475;28;20062;-84
2022/06/02 13:26:19;;;;;;;2.50;1.35;;;23.70;64.50;;;;;;4977786;28;20062;-82
2022/06/02 13:28:53;;;;;;;;;;;23.80;64.50;;;;;;4995947;28;20042;-85
2022/06/02 13:31:45;;;;;;;2.97;1.30;;;23.70;64.50;;;;;;4999109;28;20202;-84
2022/06/02 13:34:45;;;;;;;3.55;1.38;;;23.50;64.60;;;;;;4998488;28;20078;-84
2022/06/02 13:37:26;;;;;;;2.22;1.45;;;23.50;64.20;;;;;;4983310;28;20026;-85
2022/06/02 13:40:15;;;;;;;3.80;1.20;;;23.80;63.60;;;;;;4995061;28;20130;-83
2022/06/02 13:42:53;;;;;;;4.97;1.52;;;23.70;63.90;;;;;;5003993;28;20061;-84
2022/06/02 13:45:30;;;;;;;9.27;1.40;;;24.00;64.10;;;;;;4985043;28;20054;-84
2022/06/02 13:48:33;;;;;;;1.88;1.20;;;24.10;63.80;;;;;;5000468;28;20022;-85
2022/06/02 13:51:14;;;;;;;3.33;1.40;;;24.00;64.10;;;;;;4989438;28;20042;-84
2022/06/02 13:59:55;;;;;;;3.70;1.40;;;24.10;63.60;;;;;;5012325;28;20037;-84
2022/06/02 14:02:43;;;;;;;1.52;1.30;;;24.30;64.50;;;;;;4995442;28;20085;-85
2022/06/02 14:05:21;;;;;;;3.63;1.30;;;24.20;63.60;;;;;;5004761;28;20034;-84
2022/06/02 14:08:10;;;;;;;2.63;1.10;;;24.20;63.60;;;;;;4999356;28;20022;-86
2022/06/02 14:10:48;;;;;;;2.88;1.25;;;24.00;63.20;;;;;;4994767;28;20038;-84
2022/06/02 14:13:53;;;;;;;3.58;1.33;;;23.90;63.80;;;;;;5010131;28;20035;-85
2022/06/02 14:16:47;;;;;;;5.10;1.80;;;24.00;64.50;;;;;;4999027;28;20050;-87
2022/06/02 14:19:47;;;;;;;4.38;1.65;;;24.20;63.70;;;;;;5016039;28;20023;-85
2022/06/02 14:22:30;;;;;;;4.57;1.55;;;24.10;63.00;;;;;;5009494;28;20022;-82
2022/06/02 14:25:16;;;;;;;2.80;1.30;;;24.00;63.50;;;;;;4999317;28;20086;-83
2022/06/02 14:28:07;;;;;;;1.85;1.33;;;24.20;63.80;;;;;;4976726;28;20035;-83
2022/06/02 14:30:41;;;;;;;3.88;1.67;;;25.00;64.10;;;;;;4989136;28;20394;-84
2022/06/02 14:33:46;;;;;;;2.38;1.33;;;24.20;63.60;;;;;;4996526;28;20029;-83
2022/06/02 14:36:26;;;;;;;3.60;1.40;;;24.20;63.30;;;;;;4914378;29;20077;-82
2022/06/02 14:39:17;;;;;;;3.00;1.27;;;24.30;63.30;;;;;;4967237;28;20070;-82
2022/06/02 14:41:58;;;;;;;2.97;1.45;;;24.30;63.40;;;;;;4983050;28;20018;-85
2022/06/02 14:44:31;;;;;;;2.53;1.35;;;24.30;62.90;;;;;;4981782;28;20042;-82
2022/06/02 14:47:03;;;;;;;3.00;1.25;;;24.20;62.20;;;;;;4976173;28;20113;-84
2022/06/02 14:49:46;;;;;;;4.38;1.25;;;24.30;62.70;;;;;;4975607;28;20090;-85
2022/06/02 14:52:30;;;;;;;2.60;1.30;;;24.30;61.90;;;;;;4997372;28;20030;-83
2022/06/02 14:54:55;;;;;;;1.67;1.30;;;24.30;61.90;;;;;;4977455;28;20117;-82
2022/06/02 14:57:33;;;;;;;2.55;1.40;;;24.40;61.50;;;;;;4994349;28;20045;-84
2022/06/02 15:00:28;;;;;;;3.88;1.30;;;24.40;60.80;;;;;;4999568;28;20031;-83
2022/06/02 15:03:03;;;;;;;4.35;1.42;;;24.30;61.50;;;;;;4959980;28;20045;-84
2022/06/02 15:05:55;;;;;;;2.22;1.30;;;24.40;60.50;;;;;;4994153;28;20460;-86
2022/06/02 15:08:39;;;;;;;2.30;1.20;;;24.50;60.30;;;;;;4981602;28;20093;-85
2022/06/02 15:11:33;;;;;;;2.47;1.15;;;24.90;60.80;;;;;;4971099;28;20026;-82